Aérodrome :
LOGIN :

S'inscrire | Disclaimer

   EN    FR    IT 

 










Légende :    VFR   VFR Marginal   IFR   IFR Intensif   IFR Très Intensif
Visi : 
Plafond : 
>= 8 km
>= 3000ft
5 à 8 km
1000 à 3000 ft
1500m à 5 km
500 à 1000 ft
800 à 1500m
200 à 500 ft
< 800m
< 200 ft
Symboles :   Orages  Brouillard  Fortes neiges  Fortes précipitations  Vent > 20 kt
SIGMETs :   Divers  Orages  Givrage  Turbulence  Onde Orograph.  Cendres Volcan.







- Altitude de l'aérodrome : 468 ft
- Code IATA : GRO


LEGE - Girona Costa Brava

DERNIER METAR :
  • 151430Z 13008KT 100V160 9999 FEW040 29/14 Q1021

METARs EXPIRÉS :
  • 151400Z 01003KT 290V080 9999 FEW040 29/14 Q1022
  • 151330Z 04005KT CAVOK 29/14 Q1022
  • 151300Z 02005KT 300V070 CAVOK 28/14 Q1022
  • 151230Z 05005KT 340V100 CAVOK 28/14 Q1022
  • 151200Z 03005KT 340V110 CAVOK 27/14 Q1023

TAF TAF LEGE
Valide du 15 à 12h jusqu'au 16 à 12h UTC


151100Z 1512/1612 06008KT 9999 FEW040 TX30/1513Z TN15/1606Z
TEMPO 1514/1518 13007KT
Pas de NOTAMs connus pour ce terrain.



MET'MAP, la Météo Aéronautique d'un coup d'oeil ! - Copyright ORBIFLY Décembre 2007 - Disclaimer

ORBIFLY MET'MAP TEAM :

Programmation & Développement : Alexandra Zaïnal
Conception & Développement : Baudouin d'Aumeries
Co-Programmation & Développement : Marc-Olivier Méhu
Soutien technique & logistique : Manuel Goepfert

Contact : metmap@orbifly.com




SOURCES & CREDITS :

   NOAA